Time;durP1;ratioP1;P1;durP2;ratioP2;P2;SDS_P1;SDS_P2;PMS_P1;PMS_P2;Temp;Humidity;BMP_temperature;BMP_pressure;BME280_temperature;BME280_humidity;BME280_pressure;Samples;Min_cycle;Max_cycle;Signal;HPM_P1;HPM_P2
2023/12/09 00:01:09;;;;;;;61.87;19.57;;;;;2.80;96073.00;;;;8334189;28;20538;-71
2023/12/09 00:05:13;;;;;;;66.13;20.90;;;;;2.80;96065.00;;;;8334064;28;20248;-71
2023/12/09 00:09:18;;;;;;;72.90;20.47;;;;;2.80;96060.00;;;;8333046;28;20548;-71
2023/12/09 00:13:22;;;;;;;75.03;20.37;;;;;2.80;96071.00;;;;8333170;28;20197;-71
2023/12/09 00:17:26;;;;;;;67.53;19.97;;;;;2.80;96073.00;;;;8332998;28;20240;-71
2023/12/09 00:21:29;;;;;;;58.10;19.27;;;;;2.80;96073.00;;;;8332900;28;20236;-71
2023/12/09 00:25:33;;;;;;;54.37;19.60;;;;;2.90;96063.00;;;;8333173;28;20193;-70
2023/12/09 00:29:37;;;;;;;61.70;20.33;;;;;2.80;96057.00;;;;8333354;28;20645;-70
2023/12/09 00:33:40;;;;;;;57.57;19.20;;;;;2.90;96061.00;;;;8331500;28;20193;-69
2023/12/09 00:37:43;;;;;;;56.60;19.93;;;;;2.90;96070.00;;;;8331823;28;20193;-69
2023/12/09 00:41:48;;;;;;;65.20;19.40;;;;;2.90;96063.00;;;;8333361;28;20192;-69
2023/12/09 00:45:51;;;;;;;63.50;18.23;;;;;2.90;96072.00;;;;8331575;28;20625;-69
2023/12/09 00:49:54;;;;;;;58.50;19.43;;;;;2.90;96062.00;;;;8332203;28;20218;-68
2023/12/09 00:53:57;;;;;;;64.90;18.93;;;;;2.90;96061.00;;;;8331879;28;20186;-69
2023/12/09 00:58:01;;;;;;;57.43;19.53;;;;;2.90;96060.00;;;;8331681;28;20228;-69
2023/12/09 01:02:05;;;;;;;68.63;21.33;;;;;2.90;96062.00;;;;8331706;28;20236;-68
2023/12/09 01:06:08;;;;;;;64.37;19.70;;;;;2.80;96067.00;;;;8331832;28;20689;-69
2023/12/09 01:10:11;;;;;;;70.30;21.60;;;;;2.80;96079.00;;;;8331645;28;20225;-69
2023/12/09 01:14:16;;;;;;;67.10;21.63;;;;;2.80;96085.00;;;;8330806;28;20227;-69
2023/12/09 01:18:19;;;;;;;70.93;20.57;;;;;2.80;96088.00;;;;8331657;28;20232;-68
2023/12/09 01:22:22;;;;;;;79.27;22.33;;;;;2.80;96085.00;;;;8331942;28;20530;-69
2023/12/09 01:26:25;;;;;;;77.57;21.93;;;;;2.80;96087.00;;;;8330854;28;20202;-69
2023/12/09 01:30:30;;;;;;;81.50;21.20;;;;;2.80;96089.00;;;;8328775;28;20291;-69
2023/12/09 01:34:34;;;;;;;80.80;22.13;;;;;2.80;96091.00;;;;8330794;28;20200;-69
2023/12/09 01:38:37;;;;;;;74.97;22.93;;;;;2.80;96098.00;;;;8331561;28;20196;-69
2023/12/09 01:42:41;;;;;;;86.97;24.10;;;;;2.80;96093.00;;;;8330633;28;20236;-69
2023/12/09 01:46:46;;;;;;;76.50;21.60;;;;;2.80;96093.00;;;;8331316;28;20634;-69
2023/12/09 01:50:50;;;;;;;79.87;23.17;;;;;2.80;96082.00;;;;8330501;28;20204;-69
2023/12/09 01:54:53;;;;;;;102.40;24.00;;;;;2.80;96091.00;;;;8332357;28;20200;-69
2023/12/09 01:58:57;;;;;;;88.57;23.33;;;;;2.70;96076.00;;;;8330346;28;20207;-69
2023/12/09 02:03:01;;;;;;;108.70;26.03;;;;;2.70;96087.00;;;;8330842;28;20370;-69
2023/12/09 02:07:05;;;;;;;113.53;25.30;;;;;2.70;96101.00;;;;8330861;28;20219;-69
2023/12/09 02:11:16;;;;;;;111.97;26.03;;;;;2.70;96096.00;;;;8330816;28;20613;-70
2023/12/09 02:15:26;;;;;;;103.93;26.10;;;;;2.70;96114.00;;;;8331114;28;20193;-69
2023/12/09 02:19:32;;;;;;;108.50;26.40;;;;;2.70;96117.00;;;;8330963;28;20271;-69
2023/12/09 02:23:37;;;;;;;158.20;28.13;;;;;2.70;96112.00;;;;8332007;28;20192;-69
2023/12/09 02:27:47;;;;;;;129.37;28.10;;;;;2.70;96105.00;;;;8332445;28;20254;-69
2023/12/09 02:31:55;;;;;;;167.20;29.37;;;;;2.70;96102.00;;;;8336584;28;20190;-70
2023/12/09 02:36:02;;;;;;;250.90;31.93;;;;;2.70;96101.00;;;;8336717;28;20184;-69
2023/12/09 02:40:09;;;;;;;172.43;29.90;;;;;2.70;96103.00;;;;8336948;28;20191;-69
2023/12/09 02:44:13;;;;;;;176.00;29.37;;;;;2.70;96106.00;;;;8336404;28;20535;-69
2023/12/09 02:48:16;;;;;;;163.87;28.97;;;;;2.70;96103.00;;;;8336441;28;20264;-69
2023/12/09 02:52:20;;;;;;;167.43;29.77;;;;;2.80;96107.00;;;;8336792;28;20285;-69
2023/12/09 02:56:24;;;;;;;251.80;32.83;;;;;2.80;96107.00;;;;8335347;28;20246;-69
2023/12/09 03:00:27;;;;;;;172.00;29.93;;;;;2.80;96101.00;;;;8335246;28;20195;-69
2023/12/09 03:04:31;;;;;;;364.77;36.73;;;;;2.80;96098.00;;;;8331272;22;20231;-77
2023/12/09 03:08:34;;;;;;;293.57;32.40;;;;;2.80;96102.00;;;;8318015;28;20224;-74
2023/12/09 03:12:39;;;;;;;443.53;42.27;;;;;2.70;96114.00;;;;8315081;28;20203;-72
2023/12/09 03:16:42;;;;;;;368.00;36.77;;;;;2.70;96122.00;;;;8316413;28;20203;-75
2023/12/09 03:20:45;;;;;;;415.20;38.20;;;;;2.70;96129.00;;;;8312382;28;20618;-76
2023/12/09 03:24:48;;;;;;;451.73;41.57;;;;;2.70;96128.00;;;;8314669;28;20197;-74
2023/12/09 03:28:56;;;;;;;376.20;37.63;;;;;2.70;96134.00;;;;8314424;28;20863;-72
2023/12/09 03:32:59;;;;;;;445.67;41.43;;;;;2.70;96127.00;;;;8317501;28;20307;-74
2023/12/09 03:37:02;;;;;;;309.10;35.67;;;;;2.70;96129.00;;;;8314962;28;20251;-75
2023/12/09 03:41:06;;;;;;;307.03;33.67;;;;;2.70;96126.00;;;;8315994;28;20284;-74
2023/12/09 03:45:12;;;;;;;259.63;33.37;;;;;2.70;96132.00;;;;8316748;28;20670;-72
2023/12/09 03:49:15;;;;;;;313.00;35.93;;;;;2.70;96126.00;;;;8316311;28;20312;-72
2023/12/09 03:53:18;;;;;;;436.17;40.03;;;;;2.70;96132.00;;;;8315051;28;20761;-71
2023/12/09 03:57:21;;;;;;;431.37;40.30;;;;;2.70;96126.00;;;;8313285;28;20284;-77
2023/12/09 04:01:26;;;;;;;292.20;34.80;;;;;2.70;96112.00;;;;8317514;28;20212;-73
2023/12/09 04:05:29;;;;;;;218.10;32.17;;;;;2.70;96118.00;;;;8311686;28;20205;-73
2023/12/09 04:09:32;;;;;;;265.10;34.10;;;;;2.70;96120.00;;;;8317380;28;20235;-71
2023/12/09 04:13:36;;;;;;;273.23;34.93;;;;;2.70;96131.00;;;;8309859;28;20209;-74
2023/12/09 04:17:41;;;;;;;355.53;38.13;;;;;2.70;96125.00;;;;8317972;28;20249;-75
2023/12/09 04:21:44;;;;;;;359.63;38.03;;;;;2.80;96133.00;;;;8312378;28;20271;-73
2023/12/09 04:25:47;;;;;;;333.80;36.97;;;;;2.80;96139.00;;;;8311960;28;20212;-72
2023/12/09 04:29:51;;;;;;;414.20;40.97;;;;;2.90;96128.00;;;;8315424;28;20319;-73
2023/12/09 04:33:56;;;;;;;324.90;36.83;;;;;2.90;96120.00;;;;8316781;28;20210;-73
2023/12/09 04:37:59;;;;;;;410.23;39.80;;;;;2.90;96124.00;;;;8312112;28;20270;-73
2023/12/09 04:42:04;;;;;;;247.37;33.63;;;;;2.90;96118.00;;;;8320467;28;20900;-72
2023/12/09 04:46:07;;;;;;;338.77;38.63;;;;;2.90;96113.00;;;;8319154;28;20202;-76
2023/12/09 04:50:12;;;;;;;199.90;31.47;;;;;2.90;96119.00;;;;8321077;28;20230;-71
2023/12/09 04:54:15;;;;;;;448.47;40.33;;;;;2.90;96113.00;;;;8336905;28;20250;-73
2023/12/09 04:58:18;;;;;;;431.97;40.00;;;;;2.90;96101.00;;;;8311184;28;20201;-74
2023/12/09 05:02:21;;;;;;;331.03;34.83;;;;;2.90;96103.00;;;;8303266;28;20321;-73
2023/12/09 05:06:26;;;;;;;167.97;29.47;;;;;2.90;96110.00;;;;8304377;28;20674;-71
2023/12/09 05:10:29;;;;;;;176.57;29.10;;;;;2.90;96105.00;;;;8312283;28;20225;-72
2023/12/09 05:14:32;;;;;;;238.77;32.60;;;;;2.90;96109.00;;;;8315378;28;20231;-75
2023/12/09 05:18:35;;;;;;;292.63;33.50;;;;;2.90;96110.00;;;;8296143;28;20233;-75
2023/12/09 05:22:40;;;;;;;322.03;34.97;;;;;2.90;96109.00;;;;8306854;28;20208;-72
2023/12/09 05:26:43;;;;;;;850.57;80.63;;;;;2.80;96115.00;;;;8304762;28;20837;-71
2023/12/09 05:30:47;;;;;;;214.00;30.90;;;;;2.80;96121.00;;;;8314281;28;20670;-73
2023/12/09 05:34:50;;;;;;;232.27;32.03;;;;;2.80;96123.00;;;;8308483;28;20292;-75
2023/12/09 05:38:54;;;;;;;256.33;31.40;;;;;2.90;96121.00;;;;8315026;28;20198;-72
2023/12/09 05:42:57;;;;;;;227.33;32.73;;;;;2.90;96128.00;;;;8311263;28;20228;-74
2023/12/09 05:47:01;;;;;;;225.47;31.73;;;;;2.90;96124.00;;;;8318902;28;20291;-72
2023/12/09 05:51:04;;;;;;;194.13;31.20;;;;;2.90;96121.00;;;;8321845;28;20232;-73
2023/12/09 05:55:09;;;;;;;227.50;33.73;;;;;2.90;96122.00;;;;8316437;28;20217;-76
2023/12/09 05:59:14;;;;;;;168.23;29.17;;;;;2.90;96119.00;;;;8304425;28;20243;-72
2023/12/09 06:03:17;;;;;;;157.97;29.37;;;;;2.80;96125.00;;;;8307029;28;20228;-72
2023/12/09 06:07:20;;;;;;;201.50;32.80;;;;;2.80;96132.00;;;;8307725;28;20191;-75
2023/12/09 06:11:25;;;;;;;200.97;31.30;;;;;2.80;96132.00;;;;8301934;28;20239;-73
2023/12/09 06:15:28;;;;;;;216.63;31.60;;;;;2.80;96124.00;;;;8319142;28;20214;-78
2023/12/09 06:19:31;;;;;;;277.10;34.10;;;;;2.80;96122.00;;;;8318712;28;20209;-73
2023/12/09 06:23:34;;;;;;;298.40;35.57;;;;;2.80;96135.00;;;;8315074;28;20204;-79
2023/12/09 06:27:38;;;;;;;221.83;30.93;;;;;2.80;96148.00;;;;8317999;28;20736;-75
2023/12/09 06:31:42;;;;;;;275.90;33.07;;;;;2.80;96144.00;;;;8313863;28;20236;-76
2023/12/09 06:35:45;;;;;;;377.00;37.17;;;;;2.80;96135.00;;;;8312828;28;20223;-73
2023/12/09 06:39:48;;;;;;;494.30;42.33;;;;;2.80;96140.00;;;;8305716;28;20300;-74
2023/12/09 06:43:53;;;;;;;518.57;44.57;;;;;2.80;96128.00;;;;8310241;28;20200;-74
2023/12/09 06:47:56;;;;;;;202.37;33.00;;;;;2.80;96133.00;;;;8313794;28;20208;-74
2023/12/09 06:51:59;;;;;;;283.47;36.60;;;;;2.80;96142.00;;;;8308881;28;20224;-74
2023/12/09 06:56:02;;;;;;;223.63;33.87;;;;;2.80;96148.00;;;;8318580;28;20888;-74
2023/12/09 07:00:08;;;;;;;297.50;36.63;;;;;2.80;96154.00;;;;8316013;28;20726;-73
2023/12/09 07:04:13;;;;;;;389.97;42.43;;;;;2.90;96149.00;;;;8311458;28;20271;-74
2023/12/09 07:08:17;;;;;;;609.30;55.13;;;;;2.90;96146.00;;;;8318338;28;20205;-72
2023/12/09 07:12:20;;;;;;;487.00;46.03;;;;;2.90;96146.00;;;;8312595;28;20352;-74
2023/12/09 07:16:24;;;;;;;359.53;39.73;;;;;2.90;96137.00;;;;8307120;28;20204;-73
2023/12/09 07:20:28;;;;;;;592.37;54.37;;;;;2.90;96126.00;;;;8315384;28;20229;-74
2023/12/09 07:24:31;;;;;;;439.10;48.63;;;;;2.90;96136.00;;;;8305344;28;20288;-74
2023/12/09 07:28:34;;;;;;;257.03;37.73;;;;;3.00;96144.00;;;;8317191;28;20646;-75
2023/12/09 07:32:39;;;;;;;257.17;36.47;;;;;3.00;96142.00;;;;8309065;28;20205;-75
2023/12/09 07:36:42;;;;;;;236.60;40.40;;;;;2.90;96132.00;;;;8305311;28;20242;-75
2023/12/09 07:40:46;;;;;;;298.53;39.87;;;;;3.00;96137.00;;;;8307367;28;20205;-75
2023/12/09 07:44:49;;;;;;;313.10;38.60;;;;;3.00;96136.00;;;;8313721;28;20654;-75
2023/12/09 07:48:54;;;;;;;305.70;37.83;;;;;3.00;96134.00;;;;8307091;28;20700;-74
2023/12/09 07:52:57;;;;;;;360.00;42.57;;;;;3.00;96132.00;;;;8302154;28;20248;-74
2023/12/09 07:57:00;;;;;;;367.13;41.73;;;;;3.10;96134.00;;;;8322163;28;20235;-75
2023/12/09 08:01:04;;;;;;;385.40;42.33;;;;;3.10;96133.00;;;;8306724;28;20625;-75
2023/12/09 08:05:13;;;;;;;445.67;45.20;;;;;3.20;96120.00;;;;8310045;28;20811;-76
2023/12/09 08:09:16;;;;;;;539.37;48.77;;;;;3.20;96120.00;;;;8320490;28;21048;-75
2023/12/09 08:13:19;;;;;;;376.43;40.67;;;;;3.20;96127.00;;;;8302427;28;20199;-75
2023/12/09 08:17:22;;;;;;;510.77;45.27;;;;;3.30;96118.00;;;;8318443;28;20634;-76
2023/12/09 08:21:27;;;;;;;325.63;39.80;;;;;3.30;96121.00;;;;8307890;28;20239;-76
2023/12/09 08:25:30;;;;;;;350.37;40.27;;;;;3.40;96110.00;;;;8308163;28;20286;-75
2023/12/09 08:29:33;;;;;;;362.27;40.97;;;;;3.40;96121.00;;;;8310197;28;20235;-78
2023/12/09 08:33:36;;;;;;;328.73;39.70;;;;;3.50;96111.00;;;;8290647;28;20236;-75
2023/12/09 08:37:41;;;;;;;402.80;42.00;;;;;3.60;96102.00;;;;8295198;28;20441;-75
2023/12/09 08:41:45;;;;;;;638.37;53.90;;;;;3.60;96102.00;;;;8296235;28;20239;-76
2023/12/09 08:45:48;;;;;;;318.60;37.73;;;;;3.60;96095.00;;;;8295199;28;20297;-75
2023/12/09 08:49:51;;;;;;;324.07;38.77;;;;;3.60;96106.00;;;;8296014;28;21487;-75
2023/12/09 08:53:56;;;;;;;229.33;35.10;;;;;3.60;96107.00;;;;8307424;28;20208;-74
2023/12/09 08:57:59;;;;;;;225.90;34.70;;;;;3.70;96111.00;;;;8306175;28;20205;-77
2023/12/09 09:02:03;;;;;;;336.97;37.20;;;;;3.80;96103.00;;;;8301064;28;20249;-75
2023/12/09 09:06:06;;;;;;;380.83;38.10;;;;;3.80;96108.00;;;;8305693;28;20199;-75
2023/12/09 09:10:11;;;;;;;382.67;39.57;;;;;3.80;96117.00;;;;8318794;28;20225;-74
2023/12/09 09:14:15;;;;;;;406.13;38.83;;;;;3.80;96111.00;;;;8298895;28;20672;-76
2023/12/09 09:18:18;;;;;;;585.87;50.10;;;;;3.80;96113.00;;;;8299766;28;20738;-75
2023/12/09 09:22:21;;;;;;;195.67;34.30;;;;;3.80;96111.00;;;;8315985;28;20200;-76
2023/12/09 09:26:26;;;;;;;240.73;34.20;;;;;3.80;96103.00;;;;8302228;28;20229;-75
2023/12/09 09:30:29;;;;;;;274.90;35.17;;;;;3.80;96104.00;;;;8298939;28;20236;-75
2023/12/09 09:34:32;;;;;;;342.53;37.43;;;;;3.80;96094.00;;;;8307042;28;20287;-76
2023/12/09 09:38:35;;;;;;;354.53;38.90;;;;;3.80;96093.00;;;;8307364;28;20236;-78
2023/12/09 09:42:44;;;;;;;243.23;36.67;;;;;3.80;96085.00;;;;8311567;28;20713;-76
2023/12/09 09:46:52;;;;;;;603.03;47.77;;;;;3.80;96081.00;;;;8309683;28;20203;-77
2023/12/09 09:50:59;;;;;;;427.33;39.30;;;;;3.80;96077.00;;;;8305090;28;20259;-75
2023/12/09 09:55:03;;;;;;;636.83;48.23;;;;;3.90;96067.00;;;;8307253;28;20204;-75
2023/12/09 09:59:09;;;;;;;313.77;32.43;;;;;4.00;96056.00;;;;8307115;28;20197;-76
2023/12/09 10:03:12;;;;;;;278.63;34.70;;;;;4.00;96047.00;;;;8316426;28;20587;-79
2023/12/09 10:07:15;;;;;;;459.50;41.70;;;;;4.00;96031.00;;;;8298483;28;20209;-75
2023/12/09 10:11:19;;;;;;;185.47;32.90;;;;;4.10;96046.00;;;;8307591;28;20769;-75
2023/12/09 10:15:23;;;;;;;320.80;33.93;;;;;4.10;96026.00;;;;8310814;28;20308;-77
2023/12/09 10:19:27;;;;;;;290.80;32.07;;;;;4.10;96027.00;;;;8315127;28;20202;-77
2023/12/09 10:23:30;;;;;;;433.53;38.57;;;;;4.00;96011.00;;;;8306290;28;20205;-78
2023/12/09 10:27:33;;;;;;;236.73;31.43;;;;;4.00;95996.00;;;;8311234;28;20234;-75
2023/12/09 10:31:38;;;;;;;382.73;34.47;;;;;4.00;95998.00;;;;8312916;28;20231;-75
2023/12/09 10:35:41;;;;;;;518.17;41.63;;;;;3.90;95976.00;;;;8304176;28;20202;-75
2023/12/09 10:39:46;;;;;;;576.60;44.23;;;;;3.90;95974.00;;;;8299650;28;20209;-75
2023/12/09 10:43:49;;;;;;;370.40;35.73;;;;;4.00;95960.00;;;;8307341;28;20638;-75
2023/12/09 10:47:53;;;;;;;290.90;30.50;;;;;4.00;95947.00;;;;8300293;28;20206;-77
2023/12/09 10:51:57;;;;;;;291.83;33.37;;;;;4.00;95956.00;;;;8317815;28;20271;-75
2023/12/09 10:56:00;;;;;;;325.90;31.20;;;;;4.00;95949.00;;;;8310553;28;20925;-77
2023/12/09 11:00:09;;;;;;;341.30;35.37;;;;;4.00;95952.00;;;;8318439;28;20312;-76
2023/12/09 11:04:15;;;;;;;327.53;32.00;;;;;4.00;95950.00;;;;8313597;28;20263;-80
2023/12/09 11:08:19;;;;;;;371.00;36.60;;;;;3.90;95954.00;;;;8313781;28;20391;-76
2023/12/09 11:12:26;;;;;;;333.97;31.60;;;;;3.90;95952.00;;;;8305568;28;20322;-78
2023/12/09 11:16:30;;;;;;;445.63;34.53;;;;;3.90;95948.00;;;;8306318;28;20211;-78
2023/12/09 11:20:36;;;;;;;265.83;29.87;;;;;4.00;95944.00;;;;8298803;28;20201;-76
2023/12/09 11:24:39;;;;;;;457.63;38.67;;;;;3.90;95940.00;;;;8297264;28;20876;-75
2023/12/09 11:28:57;;;;;;;302.17;30.20;;;;;3.80;95934.00;;;;8309530;28;20204;-76
2023/12/09 11:33:01;;;;;;;355.13;34.63;;;;;3.80;95942.00;;;;8303386;28;20226;-77
2023/12/09 11:37:10;;;;;;;483.83;40.30;;;;;3.80;95936.00;;;;8315551;28;20558;-76
2023/12/09 11:41:14;;;;;;;341.10;33.37;;;;;3.80;95927.00;;;;8302307;28;20223;-76
2023/12/09 11:45:17;;;;;;;334.40;33.47;;;;;3.90;95916.00;;;;8299187;28;20212;-77
2023/12/09 11:49:22;;;;;;;589.93;42.43;;;;;3.90;95903.00;;;;8302554;28;20203;-74
2023/12/09 11:53:26;;;;;;;192.03;28.43;;;;;3.90;95900.00;;;;8325173;28;20704;-77
2023/12/09 11:57:32;;;;;;;460.83;36.70;;;;;3.90;95883.00;;;;8304029;28;20201;-77
2023/12/09 12:01:36;;;;;;;498.87;37.37;;;;;3.90;95872.00;;;;8305224;28;20220;-77
2023/12/09 12:05:40;;;;;;;554.10;43.33;;;;;3.80;95863.00;;;;8313595;28;20262;-76
2023/12/09 12:09:44;;;;;;;352.73;34.70;;;;;3.90;95842.00;;;;8310526;28;20313;-77
2023/12/09 12:13:49;;;;;;;682.40;48.20;;;;;3.90;95831.00;;;;8311702;28;20959;-79
2023/12/09 12:17:52;;;;;;;430.37;60.87;;;;;4.00;95830.00;;;;8309944;28;20232;-76
2023/12/09 12:21:56;;;;;;;315.30;50.70;;;;;4.00;95836.00;;;;8306665;28;21420;-76
2023/12/09 12:26:05;;;;;;;376.17;38.13;;;;;4.00;95819.00;;;;8308244;28;20205;-77
2023/12/09 12:30:09;;;;;;;366.00;36.03;;;;;4.00;95819.00;;;;8305330;28;20315;-78
2023/12/09 12:34:17;;;;;;;283.93;34.13;;;;;4.00;95798.00;;;;8311289;28;20293;-76
2023/12/09 12:38:23;;;;;;;239.10;35.20;;;;;4.00;95790.00;;;;8313330;28;20285;-77
2023/12/09 12:42:28;;;;;;;319.27;56.00;;;;;3.90;95783.00;;;;8300006;28;20210;-77
2023/12/09 12:46:31;;;;;;;526.47;190.83;;;;;3.80;95780.00;;;;8305348;28;20210;-77
2023/12/09 12:50:34;;;;;;;563.70;54.87;;;;;3.80;95769.00;;;;8309690;28;20649;-77
2023/12/09 12:54:38;;;;;;;439.30;43.80;;;;;3.80;95754.00;;;;8308393;28;20292;-77
2023/12/09 12:58:43;;;;;;;227.07;38.50;;;;;3.80;95730.00;;;;8306035;28;20204;-77
2023/12/09 13:02:46;;;;;;;402.80;85.93;;;;;3.80;95716.00;;;;8305037;28;20279;-76
2023/12/09 13:06:49;;;;;;;557.53;45.77;;;;;3.70;95727.00;;;;8299692;28;20237;-77
2023/12/09 13:10:52;;;;;;;574.50;58.50;;;;;3.70;95705.00;;;;8286936;28;20850;-77
2023/12/09 13:14:57;;;;;;;493.73;52.30;;;;;3.70;95693.00;;;;8299353;28;20295;-78
2023/12/09 13:19:00;;;;;;;293.23;42.30;;;;;3.80;95682.00;;;;8305201;28;20278;-77
2023/12/09 13:23:03;;;;;;;292.57;39.93;;;;;3.80;95675.00;;;;8306060;28;20280;-77
2023/12/09 13:27:08;;;;;;;408.40;48.93;;;;;3.80;95661.00;;;;8307412;28;20319;-77
2023/12/09 13:31:14;;;;;;;568.73;176.57;;;;;3.80;95654.00;;;;8290874;28;20704;-78
2023/12/09 13:35:18;;;;;;;491.30;41.20;;;;;3.90;95652.00;;;;8312790;28;20572;-77
2023/12/09 13:39:25;;;;;;;646.00;54.67;;;;;3.80;95644.00;;;;8316178;28;20225;-78
2023/12/09 13:43:29;;;;;;;404.70;49.97;;;;;3.60;95638.00;;;;8303842;28;20307;-77
2023/12/09 13:47:33;;;;;;;473.70;54.00;;;;;3.50;95639.00;;;;8287090;28;20199;-77
2023/12/09 13:51:38;;;;;;;495.40;45.00;;;;;3.50;95632.00;;;;8310054;28;20232;-78
2023/12/09 13:55:41;;;;;;;588.47;77.80;;;;;3.50;95634.00;;;;8305430;28;20244;-78
2023/12/09 13:59:45;;;;;;;598.40;46.53;;;;;3.40;95615.00;;;;8300053;28;20292;-78
2023/12/09 14:03:50;;;;;;;636.67;48.47;;;;;3.30;95623.00;;;;8298856;28;20312;-77
2023/12/09 14:07:54;;;;;;;643.90;49.13;;;;;3.20;95613.00;;;;8317159;28;20262;-77
2023/12/09 14:11:57;;;;;;;909.20;56.13;;;;;3.30;95612.00;;;;8305942;28;20228;-77
2023/12/09 14:16:00;;;;;;;700.67;47.73;;;;;3.30;95607.00;;;;8295833;28;20232;-78
2023/12/09 14:20:09;;;;;;;599.33;45.30;;;;;3.30;95604.00;;;;8311380;28;20872;-77
2023/12/09 14:24:12;;;;;;;674.97;46.57;;;;;3.30;95606.00;;;;8312290;28;20303;-78
2023/12/09 14:28:15;;;;;;;567.43;42.57;;;;;3.30;95605.00;;;;8320159;28;20673;-78
2023/12/09 14:32:18;;;;;;;281.37;34.10;;;;;3.30;95602.00;;;;8305240;28;20220;-78
2023/12/09 14:36:23;;;;;;;686.80;47.03;;;;;3.30;95604.00;;;;8317992;28;20200;-78
2023/12/09 14:40:26;;;;;;;525.80;39.57;;;;;3.30;95599.00;;;;8312050;28;20847;-79
2023/12/09 14:44:30;;;;;;;833.43;55.10;;;;;3.30;95609.00;;;;8317165;28;20221;-78
2023/12/09 14:48:34;;;;;;;840.90;53.90;;;;;3.30;95588.00;;;;8311629;28;20227;-78
2023/12/09 14:52:40;;;;;;;662.90;47.17;;;;;3.20;95581.00;;;;8309401;28;20229;-78
2023/12/09 14:56:43;;;;;;;658.60;45.33;;;;;3.20;95561.00;;;;8313605;28;20315;-78
2023/12/09 15:00:47;;;;;;;504.37;38.43;;;;;3.10;95554.00;;;;8315715;28;20567;-78
2023/12/09 15:04:53;;;;;;;541.50;40.83;;;;;3.00;95542.00;;;;8313994;28;20741;-77
2023/12/09 15:08:58;;;;;;;601.27;42.30;;;;;3.00;95532.00;;;;8303962;28;20736;-78
2023/12/09 15:13:02;;;;;;;670.40;46.87;;;;;3.00;95533.00;;;;8303952;28;20228;-77
2023/12/09 15:17:06;;;;;;;678.43;47.47;;;;;2.90;95528.00;;;;8295452;28;20344;-78
2023/12/09 15:21:09;;;;;;;575.27;40.00;;;;;2.90;95513.00;;;;8297824;28;20215;-78
2023/12/09 15:25:16;;;;;;;880.13;62.30;;;;;2.90;95505.00;;;;8297674;28;20294;-78
2023/12/09 15:29:20;;;;;;;564.40;45.17;;;;;2.90;95499.00;;;;8310239;28;20196;-79
2023/12/09 15:33:23;;;;;;;779.97;59.60;;;;;2.80;95489.00;;;;8305750;28;20250;-78
2023/12/09 15:37:27;;;;;;;1368.00;261.87;;;;;2.90;95458.00;;;;8313060;28;20196;-78
2023/12/09 15:41:33;;;;;;;662.63;69.73;;;;;2.90;95421.00;;;;8316064;28;20637;-79
2023/12/09 15:45:36;;;;;;;812.13;56.20;;;;;2.80;95403.00;;;;8306606;28;20283;-77
2023/12/09 15:49:40;;;;;;;373.07;33.03;;;;;2.80;95389.00;;;;8309827;28;20212;-78
2023/12/09 15:53:43;;;;;;;587.50;77.40;;;;;2.80;95385.00;;;;8312879;28;20567;-78
2023/12/09 15:57:48;;;;;;;444.33;58.33;;;;;2.80;95381.00;;;;8313652;28;20199;-78
2023/12/09 16:01:53;;;;;;;795.87;75.37;;;;;2.80;95393.00;;;;8316972;28;20290;-77
2023/12/09 16:05:56;;;;;;;590.20;41.80;;;;;2.80;95387.00;;;;8318888;28;20670;-77
2023/12/09 16:10:00;;;;;;;562.40;41.70;;;;;2.80;95383.00;;;;8306178;28;20782;-78
2023/12/09 16:14:04;;;;;;;398.30;30.57;;;;;2.80;95366.00;;;;8301756;28;20232;-78
2023/12/09 16:18:09;;;;;;;457.03;33.70;;;;;2.80;95357.00;;;;8304411;28;20228;-78
2023/12/09 16:22:13;;;;;;;483.20;39.57;;;;;2.80;95348.00;;;;8303496;28;20207;-77
2023/12/09 16:26:16;;;;;;;383.13;30.47;;;;;2.80;95336.00;;;;8322458;28;20682;-78
2023/12/09 16:30:21;;;;;;;494.83;34.33;;;;;2.80;95325.00;;;;8319190;28;20203;-77
2023/12/09 16:34:24;;;;;;;415.67;40.77;;;;;2.80;95329.00;;;;8293471;28;20821;-77
2023/12/09 16:38:27;;;;;;;394.47;30.53;;;;;2.80;95324.00;;;;8301917;28;20203;-78
2023/12/09 16:42:31;;;;;;;502.53;31.33;;;;;2.90;95311.00;;;;8304337;28;20211;-78
2023/12/09 16:46:36;;;;;;;316.00;24.10;;;;;2.90;95301.00;;;;8306318;28;20211;-78
2023/12/09 16:50:40;;;;;;;673.50;42.60;;;;;2.90;95299.00;;;;8314377;28;20242;-77
2023/12/09 16:54:43;;;;;;;363.17;28.47;;;;;2.90;95300.00;;;;8310484;28;20823;-78
2023/12/09 16:58:48;;;;;;;507.40;31.30;;;;;2.90;95292.00;;;;8307673;28;20199;-77
2023/12/09 17:02:52;;;;;;;388.37;27.37;;;;;2.80;95284.00;;;;8289034;28;20609;-77
2023/12/09 17:06:56;;;;;;;348.23;27.57;;;;;2.90;95274.00;;;;8317564;28;20241;-78
2023/12/09 17:11:01;;;;;;;263.27;22.97;;;;;2.90;95259.00;;;;8313322;28;20202;-78
2023/12/09 17:15:04;;;;;;;474.63;30.60;;;;;2.90;95260.00;;;;8310674;28;20857;-77
2023/12/09 17:19:09;;;;;;;294.07;26.07;;;;;2.90;95257.00;;;;8308441;28;20205;-77
2023/12/09 17:23:14;;;;;;;420.47;28.93;;;;;2.90;95238.00;;;;8295239;28;20204;-77
2023/12/09 17:27:18;;;;;;;427.07;28.27;;;;;2.90;95228.00;;;;8297714;28;20192;-77
2023/12/09 17:31:21;;;;;;;445.13;28.63;;;;;2.90;95216.00;;;;8302474;28;20248;-77
2023/12/09 17:35:28;;;;;;;270.57;22.27;;;;;2.90;95195.00;;;;8305432;28;20239;-77
2023/12/09 17:39:32;;;;;;;241.30;21.57;;;;;2.90;95161.00;;;;8313253;28;20287;-77
2023/12/09 17:43:36;;;;;;;248.57;21.63;;;;;2.90;95140.00;;;;8293545;28;20334;-78
2023/12/09 17:47:39;;;;;;;339.10;23.67;;;;;2.90;95129.00;;;;8292001;28;20298;-77
2023/12/09 17:51:44;;;;;;;424.87;25.70;;;;;2.90;95118.00;;;;8285660;28;20235;-77
2023/12/09 17:55:48;;;;;;;343.23;20.20;;;;;2.90;95108.00;;;;8311525;28;20268;-77
2023/12/09 17:59:51;;;;;;;364.27;22.83;;;;;2.90;95108.00;;;;8308705;28;20317;-76
2023/12/09 18:03:55;;;;;;;212.90;16.87;;;;;2.90;95102.00;;;;8300217;28;20231;-76
2023/12/09 18:08:00;;;;;;;311.43;21.37;;;;;2.90;95108.00;;;;8309369;28;20299;-76
2023/12/09 18:12:04;;;;;;;238.07;17.87;;;;;2.90;95093.00;;;;8302092;28;20226;-76
2023/12/09 18:16:10;;;;;;;1120.57;97.97;;;;;2.90;95077.00;;;;8303891;28;20239;-76
2023/12/09 18:20:14;;;;;;;425.63;23.93;;;;;2.90;95052.00;;;;8294103;28;20940;-76
2023/12/09 18:24:18;;;;;;;262.10;17.10;;;;;3.00;95029.00;;;;8308692;28;20666;-78
2023/12/09 18:28:22;;;;;;;216.50;16.13;;;;;2.90;95007.00;;;;8299654;28;20193;-79
2023/12/09 18:32:25;;;;;;;238.67;17.00;;;;;2.90;94993.00;;;;8289050;28;20904;-78
2023/12/09 18:36:29;;;;;;;237.67;17.03;;;;;2.90;94988.00;;;;8294613;28;20885;-78
2023/12/09 18:40:34;;;;;;;255.33;17.83;;;;;2.90;94978.00;;;;8313901;28;20267;-79
2023/12/09 18:44:37;;;;;;;159.33;13.77;;;;;2.90;94984.00;;;;8303545;28;20210;-78
2023/12/09 18:48:40;;;;;;;144.67;14.53;;;;;2.90;94973.00;;;;8306988;28;20241;-79
2023/12/09 18:52:44;;;;;;;134.73;13.77;;;;;2.90;94957.00;;;;8301203;28;20320;-78
2023/12/09 18:56:49;;;;;;;111.00;14.80;;;;;2.90;94972.00;;;;8304206;28;20851;-79
2023/12/09 19:00:52;;;;;;;217.57;18.43;;;;;2.90;94938.00;;;;8303049;28;20203;-78
2023/12/09 19:05:09;;;;;;;236.47;22.37;;;;;2.90;94934.00;;;;8308481;28;20735;-78
2023/12/09 19:09:13;;;;;;;297.87;19.27;;;;;2.90;94928.00;;;;8299528;28;20210;-78
2023/12/09 19:13:17;;;;;;;133.27;12.33;;;;;2.90;94904.00;;;;8299258;28;20305;-78
2023/12/09 19:17:21;;;;;;;146.90;15.43;;;;;2.90;94901.00;;;;8296692;28;20204;-79
2023/12/09 19:21:24;;;;;;;196.60;17.43;;;;;2.90;94900.00;;;;8308764;28;20590;-78
2023/12/09 19:25:27;;;;;;;299.57;20.03;;;;;2.90;94894.00;;;;8300744;28;20222;-77
2023/12/09 19:29:32;;;;;;;257.13;18.37;;;;;2.80;94887.00;;;;8305024;28;20203;-77
2023/12/09 19:33:35;;;;;;;297.33;23.00;;;;;2.80;94879.00;;;;8311891;28;20253;-78
2023/12/09 19:37:39;;;;;;;303.33;20.23;;;;;2.80;94873.00;;;;8324251;28;20214;-77
2023/12/09 19:41:42;;;;;;;199.60;17.50;;;;;2.80;94872.00;;;;8291119;28;20223;-77
2023/12/09 19:45:47;;;;;;;284.17;20.63;;;;;2.80;94874.00;;;;8295562;28;20205;-77
2023/12/09 19:49:50;;;;;;;433.53;26.50;;;;;2.80;94884.00;;;;8295427;28;20938;-77
2023/12/09 19:53:53;;;;;;;212.23;19.03;;;;;2.80;94884.00;;;;8302872;28;20237;-77